createdAt,value
2018-12-03T00:00:17.095Z,99045.81
2018-12-03T00:02:45.739Z,99041.30
2018-12-03T00:05:14.295Z,99044.61
2018-12-03T00:07:42.873Z,99041.98
2018-12-03T00:10:11.397Z,99040.91
2018-12-03T00:12:39.936Z,99034.05
2018-12-03T00:15:08.808Z,99038.10
2018-12-03T00:17:37.547Z,99027.81
2018-12-03T00:20:08.153Z,99032.30
2018-12-03T00:22:36.756Z,99026.16
2018-12-03T00:25:06.996Z,99030.13
2018-12-03T00:27:35.723Z,99024.05
2018-12-03T00:30:04.840Z,99029.59
2018-12-03T00:32:33.364Z,99025.67
2018-12-03T00:35:01.880Z,99022.52
2018-12-03T00:37:30.444Z,99019.38
2018-12-03T00:39:58.971Z,99014.57
2018-12-03T00:42:27.532Z,99022.81
2018-12-03T00:44:56.100Z,99016.16
2018-12-03T00:47:24.643Z,99018.08
2018-12-03T00:49:53.351Z,99015.92
2018-12-03T00:52:21.910Z,99019.98
2018-12-03T00:54:50.403Z,99007.33
2018-12-03T00:57:19.015Z,99018.30
2018-12-03T00:59:47.560Z,99015.81
2018-12-03T01:02:21.412Z,99004.66
2018-12-03T01:04:49.920Z,99017.09
2018-12-03T01:07:18.417Z,99016.59
2018-12-03T01:09:47.017Z,99013.25
2018-12-03T01:12:15.597Z,99003.14
2018-12-03T01:14:44.181Z,99003.92
2018-12-03T01:17:12.769Z,99011.55
2018-12-03T01:19:41.336Z,99011.88
2018-12-03T01:22:09.920Z,99002.84
2018-12-03T01:24:38.495Z,99014.52
2018-12-03T01:27:07.020Z,99008.52
2018-12-03T01:29:35.600Z,99020.95
2018-12-03T01:32:04.167Z,99020.44
2018-12-03T01:34:32.674Z,99026.98
2018-12-03T01:37:07.641Z,99029.71
2018-12-03T01:39:36.158Z,99023.55
2018-12-03T01:42:04.768Z,99014.58
2018-12-03T01:44:33.337Z,99014.16
2018-12-03T01:47:01.874Z,99017.87
2018-12-03T01:49:30.420Z,99014.33
2018-12-03T01:51:58.948Z,99016.48
2018-12-03T01:54:27.545Z,99009.05
2018-12-03T01:56:56.148Z,99010.92
2018-12-03T01:59:24.704Z,99011.44
2018-12-03T02:01:53.372Z,99019.36
2018-12-03T02:04:21.935Z,99012.41
2018-12-03T02:06:50.476Z,99008.20
2018-12-03T02:09:19.051Z,99008.98
2018-12-03T02:11:47.647Z,99003.92
2018-12-03T02:14:16.273Z,98998.69
2018-12-03T02:16:44.881Z,99002.14
2018-12-03T02:19:13.510Z,99010.92
2018-12-03T02:21:42.003Z,99005.58
2018-12-03T02:24:10.567Z,99011.77
2018-12-03T02:26:39.208Z,99009.95
2018-12-03T02:29:07.763Z,99006.78
2018-12-03T02:31:36.279Z,99009.38
2018-12-03T02:34:04.806Z,99007.84
2018-12-03T02:36:33.415Z,98999.89
2018-12-03T02:39:01.975Z,99005.78
2018-12-03T02:41:30.483Z,98996.51
2018-12-03T02:43:59.010Z,98992.02
2018-12-03T02:46:27.550Z,98991.65
2018-12-03T02:48:56.111Z,98989.76
2018-12-03T02:51:24.706Z,98987.16
2018-12-03T02:53:53.255Z,98976.32
2018-12-03T02:56:21.809Z,98981.64
2018-12-03T02:58:50.352Z,98986.42
2018-12-03T03:01:18.855Z,98972.37
2018-12-03T03:03:47.540Z,98971.83
2018-12-03T03:06:16.051Z,98968.94
2018-12-03T03:08:44.545Z,98983.21
2018-12-03T03:11:13.100Z,98978.48
2018-12-03T03:13:41.695Z,98984.86
2018-12-03T03:16:10.215Z,98978.98
2018-12-03T03:18:38.734Z,98978.48
2018-12-03T03:21:07.358Z,98988.31
2018-12-03T03:23:35.843Z,98980.05
2018-12-03T03:26:04.432Z,98976.32
2018-12-03T03:28:32.989Z,98973.69
2018-12-03T03:31:01.535Z,98979.23
2018-12-03T03:33:30.055Z,98982.03
2018-12-03T03:35:58.694Z,98983.21
2018-12-03T03:38:27.269Z,98995.43
2018-12-03T03:40:55.778Z,98991.45
2018-12-03T03:43:24.370Z,98997.53
2018-12-03T03:45:52.927Z,98997.76
2018-12-03T03:48:21.449Z,99001.66
2018-12-03T03:50:49.983Z,99000.84
2018-12-03T03:53:18.562Z,98997.95
2018-12-03T03:55:47.114Z,98996.21
2018-12-03T03:58:15.745Z,98999.59
2018-12-03T04:00:44.268Z,98996.84
2018-12-03T04:03:12.800Z,98993.63
2018-12-03T04:05:41.409Z,98993.49
2018-12-03T04:08:09.972Z,98999.36
2018-12-03T04:10:38.540Z,98991.03
2018-12-03T04:13:07.027Z,98992.68
2018-12-03T04:15:35.573Z,98994.19
2018-12-03T04:18:04.136Z,99004.02
2018-12-03T04:20:33.301Z,98991.09
2018-12-03T04:23:01.809Z,98995.00
2018-12-03T04:25:30.407Z,98995.06
2018-12-03T04:27:58.958Z,98995.33
2018-12-03T04:30:27.490Z,99000.63
2018-12-03T04:32:56.071Z,98998.57
2018-12-03T04:35:26.120Z,98996.98
2018-12-03T04:37:54.738Z,98998.36
2018-12-03T04:40:23.362Z,98988.70
2018-12-03T04:42:51.905Z,98994.38
2018-12-03T04:45:20.701Z,98998.55
2018-12-03T04:47:50.227Z,98997.73
2018-12-03T04:50:19.889Z,98992.49
2018-12-03T04:52:48.430Z,99001.95
2018-12-03T04:55:18.257Z,99000.35
2018-12-03T04:57:46.854Z,98992.68
2018-12-03T05:00:17.126Z,98996.98
2018-12-03T05:02:46.906Z,98994.48
2018-12-03T05:05:15.581Z,98994.06
2018-12-03T05:08:16.011Z,98996.12
2018-12-03T05:10:44.747Z,99000.03
2018-12-03T05:13:14.152Z,98992.77
2018-12-03T05:15:44.291Z,98996.48
2018-12-03T05:18:12.946Z,98995.92
2018-12-03T05:20:41.714Z,99002.19
2018-12-03T05:23:10.752Z,98992.00
2018-12-03T05:25:39.748Z,99001.62
2018-12-03T05:28:08.443Z,98998.38
2018-12-03T05:30:37.144Z,98995.99
2018-12-03T05:33:06.111Z,99000.80
2018-12-03T05:35:35.064Z,98997.05
2018-12-03T05:38:03.737Z,99005.59
2018-12-03T05:40:32.787Z,99003.09
2018-12-03T05:43:01.898Z,99007.98
2018-12-03T05:45:32.304Z,99011.89
2018-12-03T05:48:01.839Z,99019.08
2018-12-03T05:50:30.542Z,99019.88
2018-12-03T05:52:59.656Z,99026.66
2018-12-03T05:55:29.307Z,99021.84
2018-12-03T05:57:57.960Z,99018.47
2018-12-03T06:00:26.666Z,99029.02
2018-12-03T06:02:55.418Z,99024.72
2018-12-03T06:05:24.138Z,99030.34
2018-12-03T06:07:53.278Z,99034.67
2018-12-03T06:10:23.067Z,99033.08
2018-12-03T06:12:52.290Z,99038.50
2018-12-03T06:15:22.041Z,99038.23
2018-12-03T06:17:52.507Z,99034.07
2018-12-03T06:20:22.111Z,99043.78
2018-12-03T06:22:54.679Z,99042.42
2018-12-03T06:25:25.185Z,99031.66
2018-12-03T06:27:54.359Z,99037.06
2018-12-03T06:30:24.097Z,99040.70
2018-12-03T06:32:52.860Z,99040.57
2018-12-03T06:35:22.972Z,99045.14
2018-12-03T06:37:52.483Z,99042.73
2018-12-03T06:40:28.507Z,99043.56
2018-12-03T06:42:57.714Z,99040.58
2018-12-03T06:45:26.923Z,99044.78
2018-12-03T06:48:33.244Z,99051.16
2018-12-03T06:51:01.914Z,99046.98
2018-12-03T06:53:30.633Z,99055.87
2018-12-03T06:56:01.128Z,99059.52
2018-12-03T06:58:30.181Z,99060.83
2018-12-03T07:00:59.341Z,99062.80
2018-12-03T07:03:28.688Z,99059.95
2018-12-03T07:05:57.722Z,99071.00
2018-12-03T07:08:28.061Z,99067.27
2018-12-03T07:10:57.251Z,99070.84
2018-12-03T07:13:25.916Z,99067.75
2018-12-03T07:15:56.278Z,99058.67
2018-12-03T07:18:26.884Z,99076.01
2018-12-03T07:20:55.858Z,99072.91
2018-12-03T07:23:24.499Z,99078.30
2018-12-03T07:25:53.759Z,99077.09
2018-12-03T07:28:23.533Z,99077.41
2018-12-03T07:30:52.316Z,99082.57
2018-12-03T07:33:22.415Z,99077.52
2018-12-03T07:35:51.989Z,99087.78
2018-12-03T07:38:20.685Z,99092.17
2018-12-03T07:40:50.823Z,99094.81
2018-12-03T07:43:19.871Z,99092.84
2018-12-03T07:45:50.343Z,99095.95
2018-12-03T07:48:19.246Z,99099.44
2018-12-03T07:50:47.944Z,99092.47
2018-12-03T07:53:17.097Z,99097.17
2018-12-03T07:55:46.173Z,99105.25
2018-12-03T07:58:17.021Z,99098.80
2018-12-03T08:00:50.191Z,99093.67
2018-12-03T08:03:19.277Z,99096.72
2018-12-03T08:05:47.941Z,99096.64
2018-12-03T08:08:17.344Z,99096.41
2018-12-03T08:10:58.066Z,99095.05
2018-12-03T08:13:26.735Z,99093.47
2018-12-03T08:15:55.730Z,99096.34
2018-12-03T08:18:25.237Z,99088.88
2018-12-03T08:21:03.298Z,99095.70
2018-12-03T08:23:43.277Z,99096.21
2018-12-03T08:26:12.338Z,99100.31
2018-12-03T08:28:41.601Z,99105.24
2018-12-03T08:31:10.736Z,99099.11
2018-12-03T08:33:39.509Z,99103.98
2018-12-03T08:36:08.738Z,99107.48
2018-12-03T08:38:39.270Z,99108.50
2018-12-03T08:41:08.282Z,99109.79
2018-12-03T08:43:38.742Z,99106.73
2018-12-03T08:46:11.352Z,99106.27
2018-12-03T08:48:43.781Z,99108.67
2018-12-03T08:51:14.320Z,99108.94
2018-12-03T08:53:48.125Z,99107.95
2018-12-03T08:56:16.835Z,99107.07
2018-12-03T08:58:45.470Z,99113.45
2018-12-03T09:01:22.116Z,99121.28
2018-12-03T09:04:17.666Z,99122.27
2018-12-03T09:06:49.045Z,99122.70
2018-12-03T09:09:18.844Z,99125.45
2018-12-03T09:11:51.924Z,99130.69
2018-12-03T09:14:27.931Z,99134.52
2018-12-03T09:17:02.308Z,99130.55
2018-12-03T09:19:28.933Z,99136.05
2018-12-03T09:21:58.109Z,99136.66
2018-12-03T09:24:26.826Z,99135.66
2018-12-03T09:26:56.158Z,99129.55
2018-12-03T09:29:25.871Z,99121.55
2018-12-03T09:31:55.002Z,99125.94
2018-12-03T09:34:23.679Z,99124.16
2018-12-03T09:36:52.333Z,99124.02
2018-12-03T09:39:21.123Z,99129.09
2018-12-03T09:41:50.493Z,99133.90
2018-12-03T09:44:19.166Z,99128.57
2018-12-03T09:46:48.784Z,99125.59
2018-12-03T09:49:17.819Z,99121.48
2018-12-03T09:51:46.539Z,99125.81
2018-12-03T09:54:15.763Z,99121.33
2018-12-03T09:56:52.525Z,99125.83
2018-12-03T09:59:22.817Z,99119.11
2018-12-03T10:01:55.038Z,99131.41
2018-12-03T10:04:41.489Z,99129.59
2018-12-03T10:07:17.330Z,99128.65
2018-12-03T10:09:46.022Z,99134.85
2018-12-03T10:12:18.220Z,99125.83
2018-12-03T10:14:47.152Z,99134.47
2018-12-03T10:17:16.218Z,99126.87
2018-12-03T10:19:49.787Z,99127.30
2018-12-03T10:22:18.772Z,99129.69
2018-12-03T10:24:47.719Z,99128.95
2018-12-03T10:27:16.800Z,99124.58
2018-12-03T10:29:45.484Z,99122.41
2018-12-03T10:32:17.530Z,99115.80
2018-12-03T10:34:46.280Z,99126.34
2018-12-03T10:37:15.377Z,99120.05
2018-12-03T10:39:44.071Z,99113.62
2018-12-03T10:42:17.602Z,99106.76
2018-12-03T10:44:46.791Z,99120.52
2018-12-03T10:47:15.560Z,99120.56
2018-12-03T10:49:47.131Z,99111.81
2018-12-03T10:52:19.559Z,99120.30
2018-12-03T10:54:48.485Z,99126.12
2018-12-03T10:57:18.761Z,99122.51
2018-12-03T10:59:52.396Z,99123.00
2018-12-03T11:02:32.441Z,99116.64
2018-12-03T11:05:19.406Z,99115.50
2018-12-03T11:07:48.123Z,99117.41
2018-12-03T11:10:16.795Z,99108.45
2018-12-03T11:12:54.029Z,99107.09
2018-12-03T11:15:23.111Z,99102.94
2018-12-03T11:17:51.925Z,99105.86
2018-12-03T11:20:20.975Z,99109.60
2018-12-03T11:22:51.890Z,99113.99
2018-12-03T11:25:23.747Z,99103.19
2018-12-03T11:27:52.551Z,99097.74
2018-12-03T11:30:21.202Z,99100.99
2018-12-03T11:32:49.910Z,99096.33
2018-12-03T11:35:26.358Z,99095.55
2018-12-03T11:38:23.777Z,99092.81
2018-12-03T11:40:54.669Z,99079.53
2018-12-03T11:43:25.203Z,99078.45
2018-12-03T11:45:54.368Z,99083.95
2018-12-03T11:48:23.258Z,99091.56
2018-12-03T11:50:52.338Z,99087.41
2018-12-03T11:53:21.305Z,99091.96
2018-12-03T11:55:49.979Z,99097.50
2018-12-03T11:58:19.295Z,99103.30
2018-12-03T12:00:48.309Z,99097.44
2018-12-03T12:03:17.345Z,99097.59
2018-12-03T12:05:46.046Z,99095.25
2018-12-03T12:08:15.466Z,99101.00
2018-12-03T12:10:44.495Z,99098.09
2018-12-03T12:13:13.837Z,99093.45
2018-12-03T12:15:43.369Z,99094.27
2018-12-03T12:18:13.531Z,99088.13
2018-12-03T12:20:42.366Z,99088.38
2018-12-03T12:23:11.489Z,99084.40
2018-12-03T12:25:40.569Z,99080.10
2018-12-03T12:28:09.611Z,99082.30
2018-12-03T12:30:41.164Z,99085.67
2018-12-03T12:33:09.836Z,99075.20
2018-12-03T12:35:38.509Z,99079.44
2018-12-03T12:38:09.666Z,99078.77
2018-12-03T12:40:38.663Z,99067.76
2018-12-03T12:43:08.306Z,99063.42
2018-12-03T12:46:10.326Z,99059.48
2018-12-03T12:48:39.002Z,99059.44
2018-12-03T12:51:07.795Z,99057.81
2018-12-03T12:53:36.461Z,99054.63
2018-12-03T12:56:06.859Z,99052.52
2018-12-03T12:58:36.575Z,99050.92
2018-12-03T13:01:05.952Z,99048.30
2018-12-03T13:03:34.942Z,99049.25
2018-12-03T13:06:03.725Z,99045.98
2018-12-03T13:08:32.799Z,99036.49
2018-12-03T13:11:03.668Z,99038.28
2018-12-03T13:13:32.680Z,99046.02
2018-12-03T13:16:03.729Z,99045.86
2018-12-03T13:18:33.113Z,99039.72
2018-12-03T13:21:03.842Z,99037.28
2018-12-03T13:23:32.557Z,99029.52
2018-12-03T13:26:01.250Z,99018.69
2018-12-03T13:28:30.278Z,99025.37
2018-12-03T13:30:59.051Z,99023.41
2018-12-03T13:33:27.839Z,99013.13
2018-12-03T13:35:57.182Z,99016.81
2018-12-03T13:38:26.132Z,99011.95
2018-12-03T13:40:55.168Z,99010.55
2018-12-03T13:43:24.155Z,99007.20
2018-12-03T13:45:52.845Z,99010.52
2018-12-03T13:48:21.968Z,99007.12
2018-12-03T13:50:50.614Z,99007.88
2018-12-03T13:53:19.588Z,99006.14
2018-12-03T13:55:48.302Z,98999.44
2018-12-03T13:58:17.333Z,99004.56
2018-12-03T14:00:46.212Z,98999.95
2018-12-03T14:03:20.655Z,98998.87
2018-12-03T14:06:31.032Z,98992.49
2018-12-03T14:09:55.393Z,98986.12
2018-12-03T14:12:44.393Z,98981.06
2018-12-03T14:16:05.917Z,98981.77
2018-12-03T14:18:40.540Z,98984.73
2018-12-03T14:21:27.532Z,98987.72
2018-12-03T14:23:57.975Z,98987.21
2018-12-03T14:26:26.629Z,98981.16
2018-12-03T14:28:55.321Z,98987.21
2018-12-03T14:31:25.335Z,98983.67
2018-12-03T14:33:54.278Z,98992.73
2018-12-03T14:36:25.655Z,98989.78
2018-12-03T14:38:54.514Z,98996.16
2018-12-03T14:41:23.461Z,98992.31
2018-12-03T14:43:55.024Z,98986.20
2018-12-03T14:46:25.313Z,99003.79
2018-12-03T14:48:53.965Z,98998.02
2018-12-03T14:51:22.666Z,98997.95
2018-12-03T14:53:54.063Z,98994.64
2018-12-03T14:56:22.718Z,98998.67
2018-12-03T14:58:52.056Z,99001.80
2018-12-03T15:01:21.147Z,99008.17
2018-12-03T15:03:50.153Z,99005.05
2018-12-03T15:06:18.862Z,99000.48
2018-12-03T15:08:48.351Z,98998.45
2018-12-03T15:11:16.990Z,98996.88
2018-12-03T15:13:46.021Z,98992.49
2018-12-03T15:16:14.773Z,98983.12
2018-12-03T15:18:43.838Z,98991.25
2018-12-03T15:21:14.438Z,98993.58
2018-12-03T15:23:44.518Z,98996.59
2018-12-03T15:26:13.221Z,98990.34
2018-12-03T15:28:42.357Z,98993.69
2018-12-03T15:31:12.378Z,98989.31
2018-12-03T15:33:41.261Z,98986.23
2018-12-03T15:36:10.233Z,98991.89
2018-12-03T15:38:39.038Z,98988.50
2018-12-03T15:41:08.063Z,98990.80
2018-12-03T15:43:37.940Z,98979.78
2018-12-03T15:46:06.691Z,98990.65
2018-12-03T15:48:35.357Z,98982.00
2018-12-03T15:51:04.032Z,98983.67
2018-12-03T15:53:32.716Z,98988.03
2018-12-03T15:56:01.758Z,98983.84
2018-12-03T15:58:30.471Z,98978.63
2018-12-03T16:00:59.253Z,98982.70
2018-12-03T16:03:27.940Z,98984.02
2018-12-03T16:05:56.955Z,98985.89
2018-12-03T16:08:26.220Z,98975.05
2018-12-03T16:10:54.888Z,98973.09
2018-12-03T16:13:23.538Z,98976.08
2018-12-03T16:15:52.201Z,98971.75
2018-12-03T16:18:20.973Z,98972.80
2018-12-03T16:20:49.652Z,98981.81
2018-12-03T16:23:18.299Z,98976.66
2018-12-03T16:25:47.403Z,98977.87
2018-12-03T16:28:16.103Z,98978.08
2018-12-03T16:30:44.776Z,98973.13
2018-12-03T16:33:13.544Z,98968.60
2018-12-03T16:35:42.545Z,98965.77
2018-12-03T16:38:11.191Z,98970.54
2018-12-03T16:40:40.723Z,98968.13
2018-12-03T16:43:10.498Z,98968.98
2018-12-03T16:45:39.244Z,98970.71
2018-12-03T16:48:08.055Z,98967.32
2018-12-03T16:50:37.566Z,98962.65
2018-12-03T16:53:07.090Z,98961.19
2018-12-03T16:55:36.438Z,98959.02
2018-12-03T16:58:06.280Z,98956.28
2018-12-03T17:00:35.215Z,98959.84
2018-12-03T17:03:03.973Z,98964.95
2018-12-03T17:05:33.682Z,98962.17
2018-12-03T17:08:02.386Z,98959.26
2018-12-03T17:10:31.203Z,98956.31
2018-12-03T17:13:00.419Z,98958.62
2018-12-03T17:15:29.082Z,98962.07
2018-12-03T17:17:57.935Z,98958.27
2018-12-03T17:20:54.202Z,98969.09
2018-12-03T17:23:39.739Z,98969.42
2018-12-03T17:26:08.888Z,98970.88
2018-12-03T17:28:37.977Z,98961.87
2018-12-03T17:31:07.121Z,98961.96
2018-12-03T17:33:36.855Z,98958.17
2018-12-03T17:36:06.222Z,98957.90
2018-12-03T17:38:35.529Z,98960.95
2018-12-03T17:41:04.577Z,98965.16
2018-12-03T17:43:33.256Z,98969.94
2018-12-03T17:46:02.830Z,98968.61
2018-12-03T17:48:31.471Z,98959.77
2018-12-03T17:51:00.605Z,98965.53
2018-12-03T17:53:31.126Z,98963.97
2018-12-03T17:56:00.698Z,98963.93
2018-12-03T17:58:29.473Z,98964.57
2018-12-03T18:00:58.644Z,98963.61
2018-12-03T18:03:30.092Z,98965.55
2018-12-03T18:05:59.297Z,98967.86
2018-12-03T18:08:28.704Z,98974.97
2018-12-03T18:10:59.498Z,98977.66
2018-12-03T18:13:28.400Z,98974.38
2018-12-03T18:15:57.050Z,98971.63
2018-12-03T18:18:25.780Z,98979.11
2018-12-03T18:20:54.784Z,98983.12
2018-12-03T18:23:25.611Z,98985.92
2018-12-03T18:25:55.122Z,98990.87
2018-12-03T18:28:23.800Z,98991.44
2018-12-03T18:30:52.457Z,99000.25
2018-12-03T18:33:22.562Z,99002.12
2018-12-03T18:35:51.757Z,99005.47
2018-12-03T18:38:21.048Z,99001.32
2018-12-03T18:40:50.357Z,99011.52
2018-12-03T18:43:19.928Z,99011.19
2018-12-03T18:45:48.589Z,99018.75
2018-12-03T18:48:17.820Z,99023.63
2018-12-03T18:50:49.295Z,99019.19
2018-12-03T18:53:21.031Z,99016.54
2018-12-03T18:55:51.305Z,99021.92
2018-12-03T18:58:35.613Z,99028.81
2018-12-03T19:01:04.593Z,99030.67
2018-12-03T19:03:33.605Z,99036.89
2018-12-03T19:06:03.716Z,99047.98
2018-12-03T19:08:33.151Z,99040.70
2018-12-03T19:11:02.491Z,99045.55
2018-12-03T19:13:31.286Z,99044.73
2018-12-03T19:16:00.113Z,99042.50
2018-12-03T19:18:29.205Z,99050.27
2018-12-03T19:20:58.623Z,99051.69
2018-12-03T19:23:30.132Z,99049.66
2018-12-03T19:26:02.894Z,99065.80
2018-12-03T19:28:33.649Z,99075.57
2018-12-03T19:31:02.428Z,99089.03
2018-12-03T19:33:31.421Z,99092.44
2018-12-03T19:36:00.592Z,99092.05
2018-12-03T19:38:29.304Z,99106.01
2018-12-03T19:40:58.305Z,99103.64
2018-12-03T19:43:27.502Z,99105.92
2018-12-03T19:45:56.261Z,99118.30
2018-12-03T19:48:27.066Z,99121.78
2018-12-03T19:50:56.280Z,99132.73
2018-12-03T19:53:27.145Z,99136.80
2018-12-03T19:55:55.880Z,99144.81
2018-12-03T19:58:33.935Z,99147.81
2018-12-03T20:01:03.214Z,99158.42
2018-12-03T20:03:31.868Z,99167.75
2018-12-03T20:06:00.642Z,99174.09
2018-12-03T20:08:29.878Z,99175.36
2018-12-03T20:10:59.190Z,99186.14
2018-12-03T20:13:28.290Z,99192.97
2018-12-03T20:15:57.702Z,99201.75
2018-12-03T20:18:27.080Z,99198.30
2018-12-03T20:20:59.076Z,99205.16
2018-12-03T20:23:43.161Z,99205.84
2018-12-03T20:26:22.189Z,99212.88
2018-12-03T20:29:20.010Z,99220.42
2018-12-03T20:32:29.689Z,99224.44
2018-12-03T20:35:38.569Z,99227.67
2018-12-03T20:38:30.037Z,99236.33
2018-12-03T20:41:24.230Z,99249.81
2018-12-03T20:43:55.052Z,99262.39
2018-12-03T20:46:39.359Z,99262.36
2018-12-03T20:49:36.105Z,99285.72
2018-12-03T20:52:15.662Z,99286.89
2018-12-03T20:54:44.717Z,99290.69
2018-12-03T20:57:13.797Z,99303.38
2018-12-03T20:59:42.837Z,99318.62
2018-12-03T21:02:14.680Z,99323.87
2018-12-03T21:04:43.326Z,99339.61
2018-12-03T21:07:12.964Z,99325.58
2018-12-03T21:09:41.640Z,99358.73
2018-12-03T21:12:10.670Z,99365.27
2018-12-03T21:14:39.365Z,99377.23
2018-12-03T21:17:08.474Z,99380.87
2018-12-03T21:19:37.125Z,99397.86
2018-12-03T21:22:05.840Z,99405.14
2018-12-03T21:24:36.850Z,99411.02
2018-12-03T21:27:05.938Z,99430.65
2018-12-03T21:29:34.956Z,99444.50
2018-12-03T21:32:03.601Z,99457.84
2018-12-03T21:34:32.306Z,99455.30
2018-12-03T21:37:01.252Z,99459.13
2018-12-03T21:39:31.583Z,99461.25
2018-12-03T21:42:00.245Z,99478.55
2018-12-03T21:44:29.110Z,99482.89
2018-12-03T21:46:58.254Z,99489.27
2018-12-03T21:49:27.388Z,99492.39
2018-12-03T21:51:56.212Z,99493.28
2018-12-03T21:54:25.533Z,99508.44
2018-12-03T21:56:54.707Z,99516.16
2018-12-03T21:59:23.453Z,99524.21
2018-12-03T22:01:52.123Z,99534.34
2018-12-03T22:04:24.188Z,99540.78
2018-12-03T22:06:52.878Z,99541.38
2018-12-03T22:09:21.898Z,99550.05
2018-12-03T22:11:50.682Z,99554.72
2018-12-03T22:14:19.282Z,99560.56
2018-12-03T22:16:48.131Z,99562.88
2018-12-03T22:19:16.918Z,99567.24
2018-12-03T22:21:46.053Z,99580.03
2018-12-03T22:24:15.136Z,99581.17
2018-12-03T22:26:45.109Z,99587.94
2018-12-03T22:29:13.769Z,99606.86
2018-12-03T22:31:42.846Z,99613.98
2018-12-03T22:34:11.671Z,99619.25
2018-12-03T22:36:41.025Z,99618.55
2018-12-03T22:39:10.754Z,99630.77
2018-12-03T22:41:40.518Z,99636.45
2018-12-03T22:44:09.255Z,99645.91
2018-12-03T22:46:38.638Z,99657.51
2018-12-03T22:49:07.607Z,99664.08
2018-12-03T22:51:36.325Z,99661.16
2018-12-03T22:54:05.800Z,99673.47
2018-12-03T22:56:34.783Z,99680.53
2018-12-03T22:59:03.684Z,99683.65
2018-12-03T23:01:32.405Z,99698.42
2018-12-03T23:04:01.362Z,99697.80
2018-12-03T23:06:30.214Z,99701.35
2018-12-03T23:08:59.155Z,99703.69
2018-12-03T23:11:28.367Z,99710.45
2018-12-03T23:13:57.484Z,99714.64
2018-12-03T23:16:26.169Z,99726.27
2018-12-03T23:18:54.862Z,99730.35
2018-12-03T23:21:23.892Z,99731.34
2018-12-03T23:23:52.569Z,99739.30
2018-12-03T23:26:22.604Z,99750.30
2018-12-03T23:28:51.376Z,99756.38
2018-12-03T23:31:20.060Z,99765.23
2018-12-03T23:33:48.716Z,99773.25
2018-12-03T23:36:19.033Z,99777.63
2018-12-03T23:38:48.204Z,99784.88
2018-12-03T23:41:17.302Z,99798.87
2018-12-03T23:43:46.628Z,99797.87
2018-12-03T23:46:15.730Z,99802.09
2018-12-03T23:48:44.359Z,99807.64
2018-12-03T23:51:14.916Z,99811.63
2018-12-03T23:53:43.556Z,99828.56
2018-12-03T23:56:12.403Z,99835.34
2018-12-03T23:58:41.022Z,99844.30
